Overview Statistics Trail Chart Weather Telemetry Raw packets
 

This is the latest recevied weather packets stored in our database for station/object EA1IDU-12. If no packets are shown the sender has not sent any weather packets the latest 10 day(s).

<< 32 33 34 35 36 37 38 >>
Time Temp. Humidity Pressure Rain* Wind** Luminosity Snow
1787859610 11.67° C 85% 1023.8 hPa - - - -
1787858710 11.67° C 83% 1023.8 hPa - - - -
1787857810 11.67° C 82% 1023.5 hPa - - - -
1787856909 12.22° C 80% 1023.2 hPa - - - -
1787856011 12.22° C 77% 1022.9 hPa - - - -
1787855109 12.78° C 75% 1022.9 hPa - - - -
1787854209 12.78° C 71% 1023.1 hPa - - - -
1787853309 13.89° C 68% 1022.8 hPa - - - -
1787852408 13.89° C 67% 1022.5 hPa - - - -
1787851508 13.89° C 66% 1022.5 hPa - - - -
1787850608 13.89° C 64% 1022.8 hPa - - - -
1787849708 14.44° C 61% 1022.4 hPa - - - -
1787848808 14.44° C 61% 1022.6 hPa - - - -
1787847907 15° C 59% 1022.7 hPa - - - -
1787847007 14.44° C 58% 1022.6 hPa - - - -
1787846107 13.89° C 58% 1022.7 hPa - - - -
1787845207 15° C 53% 1022.6 hPa - - - -
1787844307 16.67° C 48% 1022.3 hPa - - - -
1787843407 17.22° C 46% 1022 hPa - - - -
1787842506 17.22° C 45% 1021.8 hPa - - - -
1787841606 18.33° C 42% 1021.5 hPa - - - -
1787840706 20° C 37% 1021.3 hPa - - - -
1787839811 20.56° C 37% 1021.1 hPa - - - -
1787838906 21.67° C 36% 1021 hPa - - - -
1787838006 22.22° C 37% 1020.8 hPa - - - -

* Rain since midnight (hover to see other rain measurements)
** Current wind speed in m/s (hover to see current wind gust speed)